Time;durP1;ratioP1;P1;durP2;ratioP2;P2;SDS_P1;SDS_P2;PMS_P1;PMS_P2;Temp;Humidity;BMP_temperature;BMP_pressure;BME280_temperature;BME280_humidity;BME280_pressure;Samples;Min_cycle;Max_cycle;Signal;HPM_P1;HPM_P2
2022/09/06 00:01:08;;;;;;;5.60;5.07;;;19.40;99.90;;;;;;5068681;28;20494;-67
2022/09/06 00:03:36;;;;;;;6.63;4.70;;;19.40;99.90;;;;;;5063416;28;20489;-66
2022/09/06 00:06:07;;;;;;;6.30;4.90;;;19.50;99.90;;;;;;5051744;28;21127;-66
2022/09/06 00:08:34;;;;;;;5.33;4.37;;;19.40;99.90;;;;;;5055009;28;20513;-66
2022/09/06 00:11:01;;;;;;;5.20;4.77;;;19.40;99.90;;;;;;5067413;28;20475;-66
2022/09/06 00:13:28;;;;;;;5.00;4.50;;;19.40;99.90;;;;;;5066258;28;20449;-67
2022/09/06 00:15:55;;;;;;;5.30;4.80;;;19.40;99.90;;;;;;5073188;28;20489;-66
2022/09/06 00:18:24;;;;;;;5.07;4.67;;;19.40;99.90;;;;;;5069018;28;20486;-66
2022/09/06 00:20:51;;;;;;;5.47;5.00;;;19.40;99.90;;;;;;5073702;28;20478;-66
2022/09/06 00:23:18;;;;;;;5.90;5.30;;;19.30;99.90;;;;;;5068818;28;21032;-66
2022/09/06 00:25:45;;;;;;;5.77;5.23;;;19.30;99.90;;;;;;5071602;28;20485;-66
2022/09/06 00:28:12;;;;;;;6.17;5.57;;;19.30;99.90;;;;;;5064728;28;20505;-67
2022/09/06 00:30:39;;;;;;;7.10;5.70;;;19.20;99.90;;;;;;5060798;28;20569;-66
2022/09/06 00:33:06;;;;;;;5.63;5.23;;;19.20;99.90;;;;;;5062248;28;20482;-66
2022/09/06 00:35:35;;;;;;;5.93;5.43;;;19.20;99.90;;;;;;5057574;28;20984;-66
2022/09/06 00:38:02;;;;;;;5.23;4.90;;;19.10;99.90;;;;;;5065099;28;20501;-66
2022/09/06 00:40:33;;;;;;;6.23;5.70;;;19.00;99.90;;;;;;5073361;28;20894;-67
2022/09/06 00:43:00;;;;;;;5.80;5.30;;;19.00;99.90;;;;;;5068764;28;20469;-66
2022/09/06 00:45:28;;;;;;;5.17;4.67;;;18.90;99.90;;;;;;5073564;28;20454;-66
2022/09/06 00:47:56;;;;;;;5.80;5.30;;;18.80;99.90;;;;;;5066374;28;20482;-66
2022/09/06 00:50:23;;;;;;;6.10;5.60;;;18.70;99.90;;;;;;5057585;28;20555;-66
2022/09/06 00:52:53;;;;;;;6.43;5.53;;;18.60;99.90;;;;;;5055063;28;20473;-66
2022/09/06 00:55:21;;;;;;;6.10;5.40;;;18.50;99.90;;;;;;5070787;28;20554;-66
2022/09/06 00:57:50;;;;;;;5.27;4.73;;;18.50;99.90;;;;;;5069176;28;20490;-66
2022/09/06 01:00:19;;;;;;;6.07;5.50;;;18.40;99.90;;;;;;5070223;28;20478;-66
2022/09/06 01:02:46;;;;;;;5.07;4.67;;;18.40;99.90;;;;;;5071203;28;20504;-66
2022/09/06 01:05:14;;;;;;;5.10;4.73;;;18.40;99.90;;;;;;5071308;28;20474;-66
2022/09/06 01:07:58;;;;;;;4.60;4.20;;;18.30;99.90;;;;;;5061306;28;20538;-66
2022/09/06 01:10:38;;;;;;;4.53;4.13;;;18.30;99.90;;;;;;5065005;28;20578;-66
2022/09/06 01:13:19;;;;;;;5.50;5.10;;;18.30;99.90;;;;;;5059647;28;20992;-66
2022/09/06 01:15:54;;;;;;;5.73;5.17;;;18.30;99.90;;;;;;5072032;28;20474;-66
2022/09/06 01:18:30;;;;;;;5.70;5.30;;;18.30;99.90;;;;;;5067587;28;20493;-66
2022/09/06 01:21:07;;;;;;;5.20;4.80;;;18.30;99.90;;;;;;5051895;28;20573;-66
2022/09/06 01:23:55;;;;;;;5.87;5.37;;;18.30;99.90;;;;;;5068830;28;20471;-66
2022/09/06 01:26:44;;;;;;;5.93;5.47;;;18.30;99.90;;;;;;5068543;28;20458;-67
2022/09/06 01:29:23;;;;;;;5.60;5.20;;;18.30;99.90;;;;;;5070459;28;20541;-66
2022/09/06 01:31:56;;;;;;;5.30;4.87;;;18.30;99.90;;;;;;5062528;28;20473;-66
2022/09/06 01:34:27;;;;;;;5.70;5.27;;;18.20;99.90;;;;;;5067916;28;20486;-66
2022/09/06 01:36:59;;;;;;;6.03;5.40;;;18.20;99.90;;;;;;5069721;28;20562;-66
2022/09/06 01:39:30;;;;;;;8.13;5.07;;;18.10;99.90;;;;;;5059992;28;20999;-66
2022/09/06 01:42:01;;;;;;;5.50;5.10;;;18.10;99.90;;;;;;5071387;28;20462;-67
2022/09/06 01:44:30;;;;;;;5.97;5.37;;;18.10;99.90;;;;;;5059414;28;20593;-67
2022/09/06 01:47:07;;;;;;;6.30;5.70;;;18.10;99.90;;;;;;5068762;28;20911;-66
2022/09/06 01:49:48;;;;;;;5.93;5.53;;;18.10;99.90;;;;;;5060529;28;20473;-67
2022/09/06 01:52:20;;;;;;;6.00;5.40;;;18.20;99.90;;;;;;5065133;28;20458;-67
2022/09/06 01:55:03;;;;;;;6.50;5.63;;;18.20;99.90;;;;;;5057914;28;20858;-66
2022/09/06 01:57:50;;;;;;;5.80;5.30;;;18.20;99.90;;;;;;5063420;28;20517;-67
2022/09/06 02:00:21;;;;;;;6.63;6.00;;;18.10;99.90;;;;;;5071962;28;20470;-66
2022/09/06 02:03:08;;;;;;;6.27;5.77;;;18.10;99.90;;;;;;5069286;28;20462;-66
2022/09/06 02:05:41;;;;;;;5.83;5.43;;;18.10;99.90;;;;;;5070148;28;20535;-66
2022/09/06 02:08:12;;;;;;;6.13;5.63;;;18.10;99.90;;;;;;5061643;28;20483;-66
2022/09/06 02:10:45;;;;;;;6.10;5.60;;;18.10;99.90;;;;;;5060300;28;20466;-66
2022/09/06 02:13:15;;;;;;;6.37;5.87;;;18.20;99.90;;;;;;5062232;28;20556;-67
2022/09/06 02:15:51;;;;;;;6.03;5.43;;;18.20;99.90;;;;;;5064517;28;20443;-68
2022/09/06 02:18:24;;;;;;;6.23;5.73;;;18.30;99.90;;;;;;5054565;28;20514;-69
2022/09/06 02:20:54;;;;;;;5.10;4.70;;;18.40;99.90;;;;;;5070529;28;20519;-69
2022/09/06 02:23:26;;;;;;;4.70;4.30;;;18.50;99.90;;;;;;5069040;28;20452;-69
2022/09/06 02:25:55;;;;;;;6.87;5.00;;;18.70;99.90;;;;;;5055417;28;20551;-69
2022/09/06 02:28:23;;;;;;;5.00;4.67;;;18.80;99.90;;;;;;5063000;28;20574;-69
2022/09/06 02:30:57;;;;;;;5.43;4.93;;;19.00;99.90;;;;;;5068017;28;20509;-69
2022/09/06 02:33:28;;;;;;;5.90;5.40;;;19.10;99.90;;;;;;5067224;28;20540;-70
2022/09/06 02:35:55;;;;;;;6.80;6.17;;;19.30;99.90;;;;;;5059051;28;20447;-70
2022/09/06 02:38:23;;;;;;;9.23;6.70;;;19.40;99.90;;;;;;5064835;28;20887;-70
2022/09/06 02:40:53;;;;;;;7.87;6.90;;;19.30;99.90;;;;;;5055094;28;20581;-70
2022/09/06 02:43:20;;;;;;;7.37;6.67;;;19.00;99.90;;;;;;5053144;28;20969;-70
2022/09/06 02:45:47;;;;;;;6.77;6.17;;;18.80;99.90;;;;;;5069817;28;20451;-69
2022/09/06 02:48:16;;;;;;;9.47;6.90;;;18.60;99.90;;;;;;5071896;28;20481;-69
2022/09/06 02:50:43;;;;;;;6.70;6.10;;;18.50;99.90;;;;;;5054739;28;20502;-69
2022/09/06 02:53:11;;;;;;;7.30;6.10;;;18.40;99.90;;;;;;5060882;28;20533;-69
2022/09/06 02:55:39;;;;;;;7.80;7.07;;;18.30;99.90;;;;;;5062822;28;20557;-69
2022/09/06 02:58:11;;;;;;;7.17;6.57;;;18.20;99.90;;;;;;5065925;28;20486;-69
2022/09/06 03:00:39;;;;;;;8.77;8.00;;;18.20;99.90;;;;;;5059089;28;21061;-70
2022/09/06 03:03:06;;;;;;;8.40;7.60;;;18.20;99.90;;;;;;5061133;28;20455;-70
2022/09/06 03:05:34;;;;;;;8.33;7.63;;;18.20;99.90;;;;;;5059911;28;20498;-70
2022/09/06 03:08:02;;;;;;;7.80;7.10;;;18.20;99.90;;;;;;5050769;28;20962;-70
2022/09/06 03:10:29;;;;;;;7.50;7.00;;;18.30;99.90;;;;;;5067058;28;20466;-70
2022/09/06 03:12:57;;;;;;;8.07;7.37;;;18.30;99.90;;;;;;5066211;28;20802;-70
2022/09/06 03:15:24;;;;;;;7.00;6.40;;;18.30;99.90;;;;;;5066434;28;20561;-70
2022/09/06 03:17:51;;;;;;;8.17;7.50;;;18.20;99.90;;;;;;5069248;28;21070;-70
2022/09/06 03:20:18;;;;;;;9.33;8.63;;;18.10;99.90;;;;;;5069491;28;21024;-70
2022/09/06 03:22:47;;;;;;;7.97;7.37;;;18.00;99.90;;;;;;5060455;28;20535;-70
2022/09/06 03:25:14;;;;;;;8.73;7.90;;;18.00;99.90;;;;;;5057100;28;21004;-70
2022/09/06 03:27:41;;;;;;;8.00;7.30;;;18.00;99.90;;;;;;5064712;28;20459;-70
2022/09/06 03:30:09;;;;;;;8.80;8.00;;;17.90;99.90;;;;;;5068782;28;20512;-70
2022/09/06 03:32:36;;;;;;;9.17;8.37;;;17.80;99.90;;;;;;5061068;28;20479;-70
2022/09/06 03:35:03;;;;;;;8.50;7.80;;;17.80;99.90;;;;;;5058853;28;20455;-70
2022/09/06 03:37:30;;;;;;;8.00;7.30;;;17.90;99.90;;;;;;5050126;28;20513;-70
2022/09/06 03:39:58;;;;;;;8.90;8.07;;;17.80;99.90;;;;;;5057173;28;20517;-70
2022/09/06 03:42:26;;;;;;;8.47;7.87;;;17.80;99.90;;;;;;5062101;28;20456;-70
2022/09/06 03:44:53;;;;;;;7.77;7.17;;;17.80;99.90;;;;;;5069833;28;20960;-70
2022/09/06 03:47:20;;;;;;;8.90;8.00;;;17.70;99.90;;;;;;5067005;28;20955;-70
2022/09/06 03:49:48;;;;;;;8.00;7.20;;;17.80;99.90;;;;;;5071540;28;20462;-70
2022/09/06 03:52:15;;;;;;;7.63;6.87;;;17.80;99.90;;;;;;5065705;28;20553;-70
2022/09/06 03:54:42;;;;;;;7.87;7.30;;;17.80;99.90;;;;;;5063908;28;20546;-70
2022/09/06 03:57:10;;;;;;;8.40;7.60;;;17.80;99.90;;;;;;5071767;28;20541;-70
2022/09/06 03:59:37;;;;;;;8.53;7.93;;;17.80;99.90;;;;;;5072412;28;20477;-70
2022/09/06 04:02:05;;;;;;;10.40;9.40;;;17.80;99.90;;;;;;5072071;28;20446;-70
2022/09/06 04:04:32;;;;;;;8.27;7.67;;;17.90;99.90;;;;;;5070191;28;20507;-70
2022/09/06 04:06:59;;;;;;;9.53;8.73;;;17.90;99.90;;;;;;5056766;28;20832;-70
2022/09/06 04:09:26;;;;;;;9.50;8.80;;;18.00;99.90;;;;;;5063400;28;20572;-70
2022/09/06 04:11:53;;;;;;;7.40;6.80;;;18.00;99.90;;;;;;5072343;28;20627;-70
2022/09/06 04:14:22;;;;;;;8.93;8.13;;;17.90;99.90;;;;;;5059647;28;20865;-70
2022/09/06 04:16:49;;;;;;;9.53;8.73;;;18.00;99.90;;;;;;5069427;28;20450;-70
2022/09/06 04:19:16;;;;;;;7.80;7.10;;;18.00;99.90;;;;;;5072757;28;20887;-70
2022/09/06 04:21:43;;;;;;;9.73;8.83;;;18.10;99.90;;;;;;5073321;28;20443;-70
2022/09/06 04:24:10;;;;;;;9.87;9.07;;;18.00;99.90;;;;;;5059521;28;20515;-69
2022/09/06 04:26:37;;;;;;;10.37;9.47;;;18.00;99.90;;;;;;5068432;28;20454;-70
2022/09/06 04:29:04;;;;;;;7.57;6.80;;;18.00;99.90;;;;;;5054928;28;20464;-70
2022/09/06 04:31:32;;;;;;;7.80;7.20;;;18.10;99.90;;;;;;5062651;28;20467;-70
2022/09/06 04:34:00;;;;;;;7.87;7.10;;;18.10;99.90;;;;;;5063053;28;20977;-70
2022/09/06 04:36:28;;;;;;;9.00;8.20;;;18.10;99.90;;;;;;5071899;28;20581;-70
2022/09/06 04:38:55;;;;;;;9.50;8.60;;;18.10;99.90;;;;;;5073244;28;20485;-70
2022/09/06 04:41:23;;;;;;;9.63;8.73;;;18.10;99.90;;;;;;5071877;28;20469;-70
2022/09/06 04:43:50;;;;;;;9.73;8.97;;;18.00;99.90;;;;;;5073598;28;20446;-70
2022/09/06 04:46:21;;;;;;;10.23;9.23;;;17.90;99.90;;;;;;5065875;28;20542;-70
2022/09/06 04:48:49;;;;;;;9.63;8.83;;;17.90;99.90;;;;;;5061394;28;20489;-70
2022/09/06 04:51:17;;;;;;;10.00;9.00;;;17.70;99.90;;;;;;5063148;28;20482;-70
2022/09/06 04:53:44;;;;;;;9.83;9.13;;;17.50;99.90;;;;;;5072081;28;20496;-70
2022/09/06 04:56:14;;;;;;;9.77;8.97;;;17.40;99.90;;;;;;5066994;28;20464;-69
2022/09/06 04:58:42;;;;;;;10.83;9.83;;;17.40;99.90;;;;;;5056723;28;20529;-69
2022/09/06 05:01:09;;;;;;;9.20;8.40;;;17.40;99.90;;;;;;5060289;28;20467;-69
2022/09/06 05:03:36;;;;;;;10.00;9.20;;;17.40;99.90;;;;;;5055040;28;20494;-71
2022/09/06 05:06:06;;;;;;;10.30;9.40;;;17.30;99.90;;;;;;5060532;28;20553;-69
2022/09/06 05:08:35;;;;;;;10.60;9.77;;;17.40;99.90;;;;;;5058806;28;20497;-69
2022/09/06 05:11:03;;;;;;;10.40;9.67;;;17.30;99.90;;;;;;5065719;28;20458;-69
2022/09/06 05:13:30;;;;;;;11.60;10.50;;;17.30;99.90;;;;;;5067617;28;20521;-69
2022/09/06 05:16:00;;;;;;;11.47;10.57;;;17.30;99.90;;;;;;5062191;28;20454;-69
2022/09/06 05:18:28;;;;;;;10.90;9.83;;;17.30;99.90;;;;;;5060537;28;20537;-69
2022/09/06 05:20:56;;;;;;;11.43;10.60;;;17.30;99.90;;;;;;5055646;28;20479;-69
2022/09/06 05:23:24;;;;;;;11.77;10.70;;;17.30;99.90;;;;;;5056796;28;20451;-69
2022/09/06 05:25:52;;;;;;;11.70;10.70;;;17.30;99.90;;;;;;5069864;28;20443;-69
2022/09/06 05:28:19;;;;;;;11.47;10.53;;;17.30;99.90;;;;;;5072147;28;20481;-69
2022/09/06 05:30:47;;;;;;;11.97;10.97;;;17.40;99.90;;;;;;5071829;28;20524;-69
2022/09/06 05:33:20;;;;;;;11.43;10.43;;;17.30;99.90;;;;;;5057991;28;20528;-70
2022/09/06 05:35:47;;;;;;;10.77;9.80;;;17.40;99.90;;;;;;5061546;28;20550;-71
2022/09/06 05:38:14;;;;;;;11.03;10.07;;;17.40;99.90;;;;;;5052351;28;21007;-70
2022/09/06 05:40:42;;;;;;;11.10;10.17;;;17.40;99.90;;;;;;5066767;28;20463;-70
2022/09/06 05:43:09;;;;;;;10.50;9.50;;;17.40;99.90;;;;;;5053826;28;20898;-71
2022/09/06 05:45:37;;;;;;;11.40;10.37;;;17.40;99.90;;;;;;5056273;28;20466;-70
2022/09/06 05:48:04;;;;;;;10.20;9.40;;;17.40;99.90;;;;;;5052342;28;20517;-70
2022/09/06 05:50:31;;;;;;;9.97;9.10;;;17.60;99.90;;;;;;5056431;28;20487;-70
2022/09/06 05:52:58;;;;;;;10.70;9.90;;;17.50;99.90;;;;;;5051479;28;20538;-70
2022/09/06 05:55:25;;;;;;;11.37;10.23;;;17.50;99.90;;;;;;5059571;28;20460;-70
2022/09/06 05:57:53;;;;;;;11.77;10.87;;;17.80;99.90;;;;;;5059226;28;20482;-70
2022/09/06 06:00:21;;;;;;;10.03;9.13;;;17.60;99.90;;;;;;5064106;28;20475;-68
2022/09/06 06:02:48;;;;;;;11.20;10.30;;;17.70;99.90;;;;;;5065165;28;20482;-68
2022/09/06 06:05:15;;;;;;;10.40;9.50;;;17.70;99.90;;;;;;5054143;28;20467;-68
2022/09/06 06:07:43;;;;;;;11.20;9.67;;;17.80;99.90;;;;;;5070636;28;20531;-67
2022/09/06 06:10:10;;;;;;;9.70;9.00;;;17.80;99.90;;;;;;5071612;28;20474;-67
2022/09/06 06:12:37;;;;;;;10.73;9.83;;;17.90;99.90;;;;;;5071929;28;20538;-69
2022/09/06 06:15:07;;;;;;;10.30;9.30;;;17.90;99.90;;;;;;5069282;28;20478;-68
2022/09/06 06:17:34;;;;;;;11.20;10.20;;;17.90;99.90;;;;;;5064458;28;20458;-68
2022/09/06 06:20:01;;;;;;;11.07;10.07;;;18.00;99.90;;;;;;5070812;28;20555;-68
2022/09/06 06:22:29;;;;;;;11.00;10.07;;;18.00;99.90;;;;;;5068442;28;20450;-68
2022/09/06 06:24:55;;;;;;;10.10;9.30;;;18.00;99.90;;;;;;5051589;28;20442;-68
2022/09/06 06:27:23;;;;;;;8.80;8.20;;;18.10;99.90;;;;;;5060290;28;20458;-76
2022/09/06 06:29:51;;;;;;;8.60;7.87;;;18.10;99.90;;;;;;5064744;28;20493;-77
2022/09/06 06:32:19;;;;;;;8.90;8.30;;;18.20;99.90;;;;;;5070841;28;20447;-68
2022/09/06 06:34:47;;;;;;;8.50;7.70;;;18.20;99.90;;;;;;5065690;28;20462;-67
2022/09/06 06:37:14;;;;;;;8.90;8.20;;;18.30;99.90;;;;;;5059990;28;21036;-68
2022/09/06 06:39:41;;;;;;;8.40;7.60;;;18.40;99.90;;;;;;5051046;28;20538;-68
2022/09/06 06:42:08;;;;;;;9.00;8.27;;;18.50;99.90;;;;;;5058648;28;20476;-68
2022/09/06 06:44:36;;;;;;;8.10;7.40;;;18.70;99.90;;;;;;5056767;28;20538;-66
2022/09/06 06:47:03;;;;;;;7.77;7.07;;;18.80;99.90;;;;;;5069828;28;20530;-67
2022/09/06 06:49:31;;;;;;;7.67;7.00;;;18.90;99.90;;;;;;5068574;28;21336;-70
2022/09/06 06:51:58;;;;;;;7.07;6.47;;;19.00;99.90;;;;;;5056087;28;21069;-68
2022/09/06 06:54:25;;;;;;;7.70;7.00;;;19.10;99.90;;;;;;5058066;28;20452;-68
2022/09/06 06:56:52;;;;;;;7.10;6.60;;;19.20;99.90;;;;;;5057732;28;20448;-67
2022/09/06 06:59:20;;;;;;;7.60;6.90;;;19.30;99.90;;;;;;5052214;28;20584;-67
2022/09/06 07:01:49;;;;;;;7.80;6.57;;;19.60;99.90;;;;;;5065980;28;20464;-67
2022/09/06 07:04:16;;;;;;;7.03;6.43;;;19.60;99.90;;;;;;5062572;28;20523;-67
2022/09/06 07:06:50;;;;;;;7.10;6.40;;;20.10;99.90;;;;;;5051719;28;21009;-67
2022/09/06 07:09:18;;;;;;;8.60;6.40;;;20.40;99.90;;;;;;5064838;28;20481;-67
2022/09/06 07:11:45;;;;;;;6.50;5.80;;;20.70;99.90;;;;;;5065942;28;20459;-83
2022/09/06 07:14:12;;;;;;;6.43;5.83;;;20.80;99.90;;;;;;5066993;28;20453;-82
2022/09/06 07:16:39;;;;;;;5.70;5.27;;;20.80;99.90;;;;;;5055887;28;20611;-77
2022/09/06 07:19:06;;;;;;;5.47;5.07;;;20.70;99.90;;;;;;5072545;28;20477;-67
2022/09/06 07:21:33;;;;;;;6.10;5.53;;;20.60;99.90;;;;;;5055338;28;20451;-67
2022/09/06 07:24:03;;;;;;;5.80;5.30;;;20.50;99.90;;;;;;5065220;28;20461;-67
2022/09/06 07:26:31;;;;;;;6.20;5.70;;;20.50;99.90;;;;;;5065605;28;20494;-67
2022/09/06 07:28:59;;;;;;;5.80;5.30;;;20.40;99.90;;;;;;5074709;28;20461;-67
2022/09/06 07:31:27;;;;;;;5.97;5.43;;;20.40;99.90;;;;;;5057175;28;20460;-67
2022/09/06 07:33:54;;;;;;;6.50;5.60;;;20.50;99.90;;;;;;5062674;28;20599;-67
2022/09/06 07:36:22;;;;;;;6.80;6.07;;;20.40;99.90;;;;;;5060283;28;20573;-68
2022/09/06 07:38:50;;;;;;;6.60;6.10;;;20.50;99.90;;;;;;5066126;28;20583;-67
2022/09/06 07:41:19;;;;;;;6.13;5.60;;;20.50;99.90;;;;;;5064605;28;20824;-68
2022/09/06 07:43:46;;;;;;;7.90;6.20;;;20.60;99.90;;;;;;5070195;28;20455;-67
2022/09/06 07:46:15;;;;;;;7.50;5.87;;;20.60;99.90;;;;;;5055804;28;20524;-68
2022/09/06 07:48:45;;;;;;;7.33;5.77;;;20.90;99.90;;;;;;5062385;28;20529;-67
2022/09/06 07:51:15;;;;;;;7.20;5.53;;;21.30;99.90;;;;;;5064404;28;20457;-67
2022/09/06 07:53:44;;;;;;;6.60;5.93;;;21.80;99.90;;;;;;5049884;28;20470;-67
2022/09/06 07:56:12;;;;;;;5.53;5.03;;;22.40;99.90;;;;;;5061368;28;20516;-67
2022/09/06 07:58:41;;;;;;;6.03;4.93;;;22.50;99.90;;;;;;5057316;28;20535;-68
2022/09/06 08:01:19;;;;;;;5.63;5.13;;;22.80;99.90;;;;;;5061682;28;20482;-68
2022/09/06 08:03:48;;;;;;;5.50;5.00;;;23.20;99.90;;;;;;5062905;28;20499;-68
2022/09/06 08:06:15;;;;;;;5.07;4.67;;;23.40;99.90;;;;;;5066423;28;20585;-68
2022/09/06 08:08:42;;;;;;;6.73;5.17;;;23.40;99.90;;;;;;5055317;28;21106;-68
2022/09/06 08:11:09;;;;;;;5.53;5.03;;;23.40;99.90;;;;;;5065294;28;20451;-67
2022/09/06 08:13:38;;;;;;;5.73;5.13;;;23.60;99.90;;;;;;5065455;28;20814;-68
2022/09/06 08:16:08;;;;;;;4.63;4.23;;;23.90;99.90;;;;;;5071704;28;20457;-68
2022/09/06 08:18:35;;;;;;;4.93;4.43;;;24.20;99.90;;;;;;5066430;28;20481;-68
2022/09/06 08:21:08;;;;;;;5.07;4.57;;;24.50;99.90;;;;;;5056860;28;20511;-68
2022/09/06 08:23:35;;;;;;;5.63;4.10;;;24.80;99.90;;;;;;5066432;28;20454;-68
2022/09/06 08:26:02;;;;;;;4.43;4.03;;;25.30;99.90;;;;;;5061903;28;20857;-68
2022/09/06 08:28:29;;;;;;;4.97;4.50;;;25.60;99.90;;;;;;5065616;28;20473;-68
2022/09/06 08:31:05;;;;;;;4.57;4.13;;;25.70;99.90;;;;;;5093247;28;20544;-68
2022/09/06 08:33:32;;;;;;;4.17;3.83;;;25.90;99.90;;;;;;5078534;28;20469;-68
2022/09/06 08:36:00;;;;;;;4.60;3.93;;;25.90;99.90;;;;;;5064085;28;20861;-68
2022/09/06 08:38:28;;;;;;;4.47;4.07;;;25.80;99.90;;;;;;5066627;28;20570;-68
2022/09/06 08:41:05;;;;;;;4.70;4.30;;;25.80;99.90;;;;;;5054147;28;21009;-68
2022/09/06 08:43:32;;;;;;;4.93;4.43;;;26.00;99.90;;;;;;5069058;28;20924;-68
2022/09/06 08:46:00;;;;;;;4.97;4.57;;;26.00;99.90;;;;;;5054233;28;20457;-77
2022/09/06 08:48:32;;;;;;;4.23;3.93;;;26.10;99.90;;;;;;5053189;28;20466;-69
2022/09/06 08:51:10;;;;;;;4.60;4.20;;;26.30;99.90;;;;;;5052496;28;20526;-70
2022/09/06 08:53:41;;;;;;;5.53;3.97;;;26.40;99.90;;;;;;5066092;28;20466;-70
2022/09/06 08:56:15;;;;;;;4.67;4.13;;;26.70;99.90;;;;;;5066131;28;20961;-67
2022/09/06 08:58:59;;;;;;;5.00;4.53;;;27.10;99.90;;;;;;5060482;28;20573;-67
2022/09/06 09:01:33;;;;;;;4.40;4.00;;;27.20;99.90;;;;;;5059076;28;20457;-70
2022/09/06 09:04:06;;;;;;;6.10;3.93;;;27.40;99.90;;;;;;5059184;28;20557;-69
2022/09/06 09:06:34;;;;;;;4.67;4.10;;;27.40;99.90;;;;;;5053270;28;20466;-70
2022/09/06 09:09:05;;;;;;;5.00;4.40;;;27.30;99.90;;;;;;5069858;28;21067;-70
2022/09/06 09:11:34;;;;;;;5.17;4.67;;;27.50;99.90;;;;;;5072109;28;20494;-70
2022/09/06 09:14:05;;;;;;;4.50;4.10;;;27.70;99.90;;;;;;5068539;28;20493;-70
2022/09/06 09:16:33;;;;;;;4.40;3.97;;;28.00;99.90;;;;;;5072108;28;20504;-70
2022/09/06 09:19:04;;;;;;;5.00;3.90;;;28.20;99.90;;;;;;5069391;28;20474;-68
2022/09/06 09:21:33;;;;;;;4.27;3.87;;;28.40;99.90;;;;;;5071643;28;20964;-67
2022/09/06 09:24:04;;;;;;;4.77;4.03;;;28.50;99.90;;;;;;5070546;28;20453;-68
2022/09/06 09:26:37;;;;;;;4.87;4.03;;;28.50;99.90;;;;;;5069465;28;20558;-68
2022/09/06 09:29:06;;;;;;;4.73;4.10;;;28.20;99.90;;;;;;5067083;28;20487;-68
2022/09/06 09:31:35;;;;;;;6.27;3.67;;;27.90;99.90;;;;;;5071582;28;20486;-68
2022/09/06 09:34:04;;;;;;;7.03;3.77;;;27.80;99.90;;;;;;5063570;28;20960;-67
2022/09/06 09:36:31;;;;;;;9.33;4.63;;;27.70;99.90;;;;;;5064306;28;20455;-67
2022/09/06 09:38:59;;;;;;;4.83;3.30;;;27.50;99.90;;;;;;5062666;28;20920;-67
2022/09/06 09:41:29;;;;;;;5.03;3.90;;;27.60;99.90;;;;;;5070480;28;20481;-68
2022/09/06 09:43:58;;;;;;;3.67;3.27;;;27.60;99.90;;;;;;5063633;28;20954;-75
2022/09/06 09:46:32;;;;;;;4.10;3.70;;;27.80;99.90;;;;;;5069500;28;20462;-72
2022/09/06 09:49:07;;;;;;;4.20;3.80;;;28.10;99.90;;;;;;5054454;28;20553;-71
2022/09/06 09:51:36;;;;;;;4.37;3.47;;;28.50;99.90;;;;;;5069507;28;20952;-72
2022/09/06 09:54:06;;;;;;;5.23;3.50;;;28.90;99.90;;;;;;5053928;28;20454;-73
2022/09/06 09:56:40;;;;;;;5.57;3.80;;;29.00;99.90;;;;;;5059275;28;20540;-71
2022/09/06 09:59:18;;;;;;;4.63;3.37;;;29.10;99.90;;;;;;5058089;28;20558;-76
2022/09/06 10:01:45;;;;;;;5.50;3.47;;;29.50;99.90;;;;;;5067761;28;20537;-72
2022/09/06 10:04:21;;;;;;;5.60;3.20;;;30.00;99.90;;;;;;5066999;28;20538;-73
2022/09/06 10:06:48;;;;;;;3.60;3.30;;;30.40;99.90;;;;;;5058654;28;20451;-77
2022/09/06 10:09:33;;;;;;;3.87;2.80;;;30.70;99.60;;;;;;5057969;28;20503;-72
2022/09/06 10:12:00;;;;;;;4.20;3.03;;;30.70;99.30;;;;;;5052262;28;20540;-72
2022/09/06 10:14:30;;;;;;;3.60;2.70;;;30.80;98.90;;;;;;5051330;28;20856;-72
2022/09/06 10:16:58;;;;;;;3.80;3.50;;;31.00;98.60;;;;;;5054592;28;20516;-73
2022/09/06 10:19:40;;;;;;;5.80;3.50;;;31.10;98.90;;;;;;5069738;28;20496;-72
2022/09/06 10:22:23;;;;;;;5.03;3.03;;;31.50;97.60;;;;;;5060920;28;20483;-72
2022/09/06 10:25:23;;;;;;;4.30;3.20;;;31.80;97.00;;;;;;5071043;28;20465;-73
2022/09/06 10:28:13;;;;;;;3.83;3.43;;;32.10;95.80;;;;;;5068171;28;20485;-73
2022/09/06 10:30:47;;;;;;;6.60;3.20;;;32.50;95.30;;;;;;5051637;28;20942;-71
2022/09/06 10:33:27;;;;;;;4.53;3.40;;;32.90;94.70;;;;;;5052023;28;20799;-72
2022/09/06 10:35:57;;;;;;;4.00;2.77;;;33.20;93.70;;;;;;5063701;28;20533;-73
2022/09/06 10:38:37;;;;;;;4.10;2.97;;;33.30;93.00;;;;;;5069666;28;20497;-73
2022/09/06 10:41:24;;;;;;;3.40;3.10;;;33.20;92.50;;;;;;5056635;28;20497;-73
2022/09/06 10:44:05;;;;;;;4.80;3.03;;;33.00;91.90;;;;;;5053584;28;20455;-73
2022/09/06 10:46:35;;;;;;;4.57;2.93;;;32.50;90.90;;;;;;5050914;28;20462;-75
2022/09/06 10:49:02;;;;;;;5.00;4.00;;;32.20;91.40;;;;;;5056198;28;21073;-71
2022/09/06 10:51:37;;;;;;;4.80;3.20;;;31.50;92.00;;;;;;5068112;28;20451;-70
2022/09/06 10:54:08;;;;;;;7.07;3.50;;;31.10;93.40;;;;;;5070529;28;20485;-71
2022/09/06 10:56:42;;;;;;;3.57;3.13;;;30.90;93.90;;;;;;5051839;28;20501;-71
2022/09/06 10:59:18;;;;;;;3.33;3.00;;;30.70;94.90;;;;;;5070489;28;20463;-71
2022/09/06 11:01:55;;;;;;;5.80;3.50;;;30.70;95.30;;;;;;5051566;28;20447;-71
2022/09/06 11:04:28;;;;;;;3.87;3.57;;;30.60;95.10;;;;;;5055814;28;20492;-74
2022/09/06 11:07:00;;;;;;;5.00;3.50;;;30.60;95.10;;;;;;5068594;28;20541;-71
2022/09/06 11:09:33;;;;;;;3.70;3.00;;;30.60;95.60;;;;;;5068016;28;20524;-71
2022/09/06 11:12:07;;;;;;;5.93;2.90;;;30.70;95.50;;;;;;5069977;28;20546;-72
2022/09/06 11:14:36;;;;;;;7.13;3.30;;;31.00;95.00;;;;;;5056503;28;20487;-72
2022/09/06 11:17:09;;;;;;;3.10;2.60;;;31.30;95.10;;;;;;5062098;28;20451;-71
2022/09/06 11:19:43;;;;;;;3.33;3.03;;;31.50;94.30;;;;;;5055319;28;20459;-71
2022/09/06 11:22:43;;;;;;;4.10;3.43;;;31.50;93.90;;;;;;5061565;28;20533;-72
2022/09/06 11:25:46;;;;;;;3.63;3.27;;;31.70;93.80;;;;;;5070061;28;20458;-71
2022/09/06 11:28:19;;;;;;;5.60;3.53;;;31.90;93.70;;;;;;5071279;28;21031;-71
2022/09/06 11:30:48;;;;;;;3.40;3.10;;;32.30;93.40;;;;;;5056473;28;20483;-71
2022/09/06 11:33:23;;;;;;;4.07;3.30;;;32.70;92.90;;;;;;5060623;28;20453;-78
2022/09/06 11:35:51;;;;;;;5.07;3.13;;;33.20;92.10;;;;;;5070884;28;20532;-71
2022/09/06 11:38:24;;;;;;;3.37;3.00;;;33.60;91.50;;;;;;5070644;28;20458;-71
2022/09/06 11:40:59;;;;;;;5.60;3.13;;;34.10;90.60;;;;;;5068747;28;20517;-70
2022/09/06 11:43:49;;;;;;;4.50;3.10;;;34.50;90.30;;;;;;5052054;28;20450;-72
2022/09/06 11:46:53;;;;;;;5.13;3.30;;;34.80;88.60;;;;;;5058199;28;20485;-72
2022/09/06 11:49:32;;;;;;;3.80;3.10;;;34.90;86.60;;;;;;5059913;28;20453;-73
2022/09/06 11:52:00;;;;;;;3.70;3.40;;;35.00;86.40;;;;;;5054643;28;20458;-71
2022/09/06 11:54:42;;;;;;;4.37;3.20;;;35.00;85.80;;;;;;5050473;28;20542;-71
2022/09/06 11:57:14;;;;;;;4.53;3.30;;;34.80;85.30;;;;;;5053515;28;20529;-72
2022/09/06 11:59:52;;;;;;;4.30;3.40;;;34.60;85.60;;;;;;5065478;28;21284;-71
2022/09/06 12:02:35;;;;;;;3.87;3.57;;;34.60;85.00;;;;;;5068390;28;20550;-71
2022/09/06 12:05:21;;;;;;;3.50;3.20;;;34.40;83.10;;;;;;5062850;28;20528;-71
2022/09/06 12:08:28;;;;;;;4.50;3.13;;;34.30;81.90;;;;;;5058908;28;21011;-71
2022/09/06 12:11:05;;;;;;;3.53;3.07;;;34.40;82.20;;;;;;5054075;28;20458;-71
2022/09/06 12:13:39;;;;;;;3.93;2.67;;;34.50;82.10;;;;;;5059344;28;21050;-71
2022/09/06 12:16:07;;;;;;;4.60;3.00;;;34.50;82.10;;;;;;5072397;28;20490;-71
2022/09/06 12:18:56;;;;;;;5.50;2.90;;;34.40;81.30;;;;;;5064476;28;20573;-72
2022/09/06 12:21:35;;;;;;;3.70;2.77;;;33.80;80.00;;;;;;5072829;28;20489;-71
2022/09/06 12:24:03;;;;;;;4.00;2.50;;;33.10;80.90;;;;;;5060330;28;20546;-71
2022/09/06 12:26:53;;;;;;;4.67;2.67;;;32.50;81.60;;;;;;5054258;28;20459;-71
2022/09/06 12:29:25;;;;;;;6.63;3.30;;;31.90;83.00;;;;;;5070783;28;20459;-71
2022/09/06 12:31:53;;;;;;;6.60;3.43;;;31.60;85.40;;;;;;5058238;28;20459;-71
2022/09/06 12:34:23;;;;;;;3.80;2.60;;;31.30;85.40;;;;;;5059074;28;20977;-71
2022/09/06 12:36:57;;;;;;;4.43;3.00;;;30.90;86.30;;;;;;5057494;28;20474;-71
2022/09/06 12:39:24;;;;;;;3.80;2.67;;;30.60;88.30;;;;;;5067190;28;20545;-71
2022/09/06 12:41:55;;;;;;;3.57;2.70;;;30.40;88.00;;;;;;5073736;28;21161;-71
2022/09/06 12:44:30;;;;;;;2.37;2.17;;;30.10;87.90;;;;;;5069100;28;20782;-71
2022/09/06 12:47:03;;;;;;;3.50;2.90;;;29.90;89.10;;;;;;5065983;28;20951;-71
2022/09/06 12:49:30;;;;;;;6.60;2.70;;;29.70;88.70;;;;;;5071973;28;20500;-71
2022/09/06 12:52:07;;;;;;;4.83;2.70;;;29.50;89.10;;;;;;5072643;28;20486;-71
2022/09/06 12:54:40;;;;;;;5.37;2.90;;;29.30;89.30;;;;;;5071008;28;20501;-71
2022/09/06 12:57:20;;;;;;;2.97;2.60;;;29.10;89.60;;;;;;5073427;28;20553;-71
2022/09/06 12:59:49;;;;;;;4.07;2.40;;;28.90;90.10;;;;;;5067939;28;20462;-71
2022/09/06 13:02:20;;;;;;;6.57;2.93;;;28.80;90.70;;;;;;5052748;28;20575;-71
2022/09/06 13:04:50;;;;;;;2.73;2.53;;;28.80;90.60;;;;;;5052977;28;20479;-71